sensor_id;sensor_type;location;lat;lon;timestamp;temperature;humidity
46159;DHT22;31888;44.512;26.104;2023-02-15T00:00:40;3.30;93.30
46159;DHT22;31888;44.512;26.104;2023-02-15T00:03:04;3.20;93.40
46159;DHT22;31888;44.512;26.104;2023-02-15T00:05:31;3.30;93.00
46159;DHT22;31888;44.512;26.104;2023-02-15T00:07:56;3.20;93.10
46159;DHT22;31888;44.512;26.104;2023-02-15T00:10:20;3.30;93.40
46159;DHT22;31888;44.512;26.104;2023-02-15T00:12:46;3.30;93.00
46159;DHT22;31888;44.512;26.104;2023-02-15T00:15:11;3.30;93.20
46159;DHT22;31888;44.512;26.104;2023-02-15T00:17:36;3.30;93.30
46159;DHT22;31888;44.512;26.104;2023-02-15T00:20:00;3.30;93.60
46159;DHT22;31888;44.512;26.104;2023-02-15T00:22:26;3.20;93.70
46159;DHT22;31888;44.512;26.104;2023-02-15T00:24:51;3.20;94.00
46159;DHT22;31888;44.512;26.104;2023-02-15T00:27:16;3.20;94.10
46159;DHT22;31888;44.512;26.104;2023-02-15T00:29:40;3.10;94.00
46159;DHT22;31888;44.512;26.104;2023-02-15T00:32:05;3.10;93.70
46159;DHT22;31888;44.512;26.104;2023-02-15T00:34:30;3.20;93.60
46159;DHT22;31888;44.512;26.104;2023-02-15T00:36:54;3.10;93.90
46159;DHT22;31888;44.512;26.104;2023-02-15T00:39:20;3.10;94.00
46159;DHT22;31888;44.512;26.104;2023-02-15T00:41:45;3.20;93.90
46159;DHT22;31888;44.512;26.104;2023-02-15T00:44:09;3.10;93.60
46159;DHT22;31888;44.512;26.104;2023-02-15T00:46:34;3.00;93.90
46159;DHT22;31888;44.512;26.104;2023-02-15T00:48:58;2.90;94.20
46159;DHT22;31888;44.512;26.104;2023-02-15T00:51:24;2.90;93.80
46159;DHT22;31888;44.512;26.104;2023-02-15T00:53:48;2.90;94.50
46159;DHT22;31888;44.512;26.104;2023-02-15T00:56:18;2.90;94.30
46159;DHT22;31888;44.512;26.104;2023-02-15T00:58:42;2.80;94.40
46159;DHT22;31888;44.512;26.104;2023-02-15T01:01:09;2.90;94.60
46159;DHT22;31888;44.512;26.104;2023-02-15T01:03:34;2.90;94.70
46159;DHT22;31888;44.512;26.104;2023-02-15T01:05:59;2.80;94.80
46159;DHT22;31888;44.512;26.104;2023-02-15T01:08:24;2.90;94.30
46159;DHT22;31888;44.512;26.104;2023-02-15T01:10:49;2.90;94.40
46159;DHT22;31888;44.512;26.104;2023-02-15T01:13:16;2.80;94.60
46159;DHT22;31888;44.512;26.104;2023-02-15T01:15:41;2.80;94.80
46159;DHT22;31888;44.512;26.104;2023-02-15T01:18:06;2.80;95.10
46159;DHT22;31888;44.512;26.104;2023-02-15T01:20:34;2.80;94.40
46159;DHT22;31888;44.512;26.104;2023-02-15T01:22:59;2.80;94.20
46159;DHT22;31888;44.512;26.104;2023-02-15T01:25:24;2.70;94.30
46159;DHT22;31888;44.512;26.104;2023-02-15T01:27:50;2.70;94.00
46159;DHT22;31888;44.512;26.104;2023-02-15T01:30:16;2.60;94.00
46159;DHT22;31888;44.512;26.104;2023-02-15T01:32:42;2.60;94.50
46159;DHT22;31888;44.512;26.104;2023-02-15T01:35:07;2.50;94.10
46159;DHT22;31888;44.512;26.104;2023-02-15T01:37:32;2.50;94.00
46159;DHT22;31888;44.512;26.104;2023-02-15T01:39:56;2.50;94.70
46159;DHT22;31888;44.512;26.104;2023-02-15T01:42:23;2.50;94.70
46159;DHT22;31888;44.512;26.104;2023-02-15T01:44:50;2.50;94.50
46159;DHT22;31888;44.512;26.104;2023-02-15T01:47:20;2.50;94.80
46159;DHT22;31888;44.512;26.104;2023-02-15T01:49:47;2.50;94.60
46159;DHT22;31888;44.512;26.104;2023-02-15T01:52:16;2.40;94.90
46159;DHT22;31888;44.512;26.104;2023-02-15T01:54:43;2.60;94.90
46159;DHT22;31888;44.512;26.104;2023-02-15T01:57:12;2.70;94.90
46159;DHT22;31888;44.512;26.104;2023-02-15T01:59:39;2.70;94.90
46159;DHT22;31888;44.512;26.104;2023-02-15T02:02:07;2.60;94.50
46159;DHT22;31888;44.512;26.104;2023-02-15T02:04:39;2.50;94.80
46159;DHT22;31888;44.512;26.104;2023-02-15T02:07:05;2.60;94.70
46159;DHT22;31888;44.512;26.104;2023-02-15T02:09:30;2.50;95.10
46159;DHT22;31888;44.512;26.104;2023-02-15T02:11:55;2.50;95.10
46159;DHT22;31888;44.512;26.104;2023-02-15T02:14:19;2.50;95.30
46159;DHT22;31888;44.512;26.104;2023-02-15T02:16:51;2.60;95.10
46159;DHT22;31888;44.512;26.104;2023-02-15T02:25:59;2.40;93.90
46159;DHT22;31888;44.512;26.104;2023-02-15T02:28:51;2.30;94.90
46159;DHT22;31888;44.512;26.104;2023-02-15T02:31:43;2.20;94.60
46159;DHT22;31888;44.512;26.104;2023-02-15T02:34:14;2.10;94.60
46159;DHT22;31888;44.512;26.104;2023-02-15T02:36:48;2.10;94.50
46159;DHT22;31888;44.512;26.104;2023-02-15T02:39:21;2.10;94.30
46159;DHT22;31888;44.512;26.104;2023-02-15T02:41:52;2.00;94.40
46159;DHT22;31888;44.512;26.104;2023-02-15T02:44:23;2.00;94.60
46159;DHT22;31888;44.512;26.104;2023-02-15T02:46:52;2.00;94.60
46159;DHT22;31888;44.512;26.104;2023-02-15T02:49:30;2.10;95.10
46159;DHT22;31888;44.512;26.104;2023-02-15T02:51:58;2.10;94.80
46159;DHT22;31888;44.512;26.104;2023-02-15T02:54:23;2.00;94.80
46159;DHT22;31888;44.512;26.104;2023-02-15T02:56:49;2.00;94.80
46159;DHT22;31888;44.512;26.104;2023-02-15T02:59:17;2.00;95.40
46159;DHT22;31888;44.512;26.104;2023-02-15T03:01:46;2.00;95.00
46159;DHT22;31888;44.512;26.104;2023-02-15T03:04:16;2.10;95.50
46159;DHT22;31888;44.512;26.104;2023-02-15T03:06:46;2.10;94.80
46159;DHT22;31888;44.512;26.104;2023-02-15T03:09:18;2.00;94.60
46159;DHT22;31888;44.512;26.104;2023-02-15T03:11:45;2.00;94.50
46159;DHT22;31888;44.512;26.104;2023-02-15T03:14:13;2.00;94.60
46159;DHT22;31888;44.512;26.104;2023-02-15T03:16:41;2.00;95.40
46159;DHT22;31888;44.512;26.104;2023-02-15T03:19:10;2.10;96.00
46159;DHT22;31888;44.512;26.104;2023-02-15T03:21:44;2.20;95.70
46159;DHT22;31888;44.512;26.104;2023-02-15T03:24:14;2.20;95.30
46159;DHT22;31888;44.512;26.104;2023-02-15T03:26:40;2.10;95.10
46159;DHT22;31888;44.512;26.104;2023-02-15T03:29:07;2.00;95.20
46159;DHT22;31888;44.512;26.104;2023-02-15T03:31:36;2.00;95.60
46159;DHT22;31888;44.512;26.104;2023-02-15T03:34:04;1.90;95.60
46159;DHT22;31888;44.512;26.104;2023-02-15T03:36:36;1.90;95.50
46159;DHT22;31888;44.512;26.104;2023-02-15T03:39:09;1.90;95.60
46159;DHT22;31888;44.512;26.104;2023-02-15T03:41:40;1.90;96.10
46159;DHT22;31888;44.512;26.104;2023-02-15T03:44:10;1.90;96.20
46159;DHT22;31888;44.512;26.104;2023-02-15T03:46:42;2.00;96.40
46159;DHT22;31888;44.512;26.104;2023-02-15T03:49:12;2.00;95.90
46159;DHT22;31888;44.512;26.104;2023-02-15T03:51:40;1.90;94.90
46159;DHT22;31888;44.512;26.104;2023-02-15T03:54:09;1.70;95.30
46159;DHT22;31888;44.512;26.104;2023-02-15T03:56:36;1.70;94.70
46159;DHT22;31888;44.512;26.104;2023-02-15T03:59:01;1.70;94.40
46159;DHT22;31888;44.512;26.104;2023-02-15T04:01:49;1.70;94.90
46159;DHT22;31888;44.512;26.104;2023-02-15T04:04:23;1.70;94.90
46159;DHT22;31888;44.512;26.104;2023-02-15T04:06:49;1.70;95.00
46159;DHT22;31888;44.512;26.104;2023-02-15T04:09:15;1.70;95.40
46159;DHT22;31888;44.512;26.104;2023-02-15T04:11:57;1.70;95.10
46159;DHT22;31888;44.512;26.104;2023-02-15T04:14:21;1.60;95.10
46159;DHT22;31888;44.512;26.104;2023-02-15T04:17:05;1.70;95.30
46159;DHT22;31888;44.512;26.104;2023-02-15T04:19:30;1.70;94.90
46159;DHT22;31888;44.512;26.104;2023-02-15T04:22:12;1.70;95.30
46159;DHT22;31888;44.512;26.104;2023-02-15T04:24:55;1.70;95.50
46159;DHT22;31888;44.512;26.104;2023-02-15T04:27:36;1.70;96.10
46159;DHT22;31888;44.512;26.104;2023-02-15T04:30:00;1.80;96.40
46159;DHT22;31888;44.512;26.104;2023-02-15T04:32:25;1.80;96.70
46159;DHT22;31888;44.512;26.104;2023-02-15T04:34:50;1.80;96.90
46159;DHT22;31888;44.512;26.104;2023-02-15T04:37:14;1.90;97.10
46159;DHT22;31888;44.512;26.104;2023-02-15T04:39:39;1.90;96.70
46159;DHT22;31888;44.512;26.104;2023-02-15T04:42:05;1.90;96.90
46159;DHT22;31888;44.512;26.104;2023-02-15T04:44:29;2.00;96.40
46159;DHT22;31888;44.512;26.104;2023-02-15T04:46:53;1.90;96.90
46159;DHT22;31888;44.512;26.104;2023-02-15T04:49:18;1.90;97.00
46159;DHT22;31888;44.512;26.104;2023-02-15T04:51:43;1.90;96.80
46159;DHT22;31888;44.512;26.104;2023-02-15T04:54:07;1.90;97.10
46159;DHT22;31888;44.512;26.104;2023-02-15T04:56:32;2.00;96.90
46159;DHT22;31888;44.512;26.104;2023-02-15T04:58:59;2.00;96.60
46159;DHT22;31888;44.512;26.104;2023-02-15T05:01:23;2.00;96.40
46159;DHT22;31888;44.512;26.104;2023-02-15T05:03:48;2.00;95.70
46159;DHT22;31888;44.512;26.104;2023-02-15T05:06:14;2.00;95.30
46159;DHT22;31888;44.512;26.104;2023-02-15T05:08:38;2.00;95.90
46159;DHT22;31888;44.512;26.104;2023-02-15T05:11:02;2.00;96.00
46159;DHT22;31888;44.512;26.104;2023-02-15T05:13:27;2.00;97.20
46159;DHT22;31888;44.512;26.104;2023-02-15T05:15:53;2.10;97.80
46159;DHT22;31888;44.512;26.104;2023-02-15T05:18:18;2.10;97.40
46159;DHT22;31888;44.512;26.104;2023-02-15T05:20:43;2.20;97.30
46159;DHT22;31888;44.512;26.104;2023-02-15T05:23:08;2.10;97.10
46159;DHT22;31888;44.512;26.104;2023-02-15T05:25:32;2.10;97.40
46159;DHT22;31888;44.512;26.104;2023-02-15T05:28:14;2.20;97.50
46159;DHT22;31888;44.512;26.104;2023-02-15T05:30:45;2.60;97.30
46159;DHT22;31888;44.512;26.104;2023-02-15T05:33:11;3.00;95.30
46159;DHT22;31888;44.512;26.104;2023-02-15T05:35:35;3.40;93.40
46159;DHT22;31888;44.512;26.104;2023-02-15T05:38:00;4.00;93.50
46159;DHT22;31888;44.512;26.104;2023-02-15T05:40:25;4.50;92.70
46159;DHT22;31888;44.512;26.104;2023-02-15T05:42:49;5.00;91.20
46159;DHT22;31888;44.512;26.104;2023-02-15T05:45:13;5.50;88.70
46159;DHT22;31888;44.512;26.104;2023-02-15T05:47:38;5.90;86.10
46159;DHT22;31888;44.512;26.104;2023-02-15T05:50:05;6.30;86.50
46159;DHT22;31888;44.512;26.104;2023-02-15T05:52:29;6.70;86.00
46159;DHT22;31888;44.512;26.104;2023-02-15T05:54:54;6.80;84.90
46159;DHT22;31888;44.512;26.104;2023-02-15T05:57:18;6.90;83.50
46159;DHT22;31888;44.512;26.104;2023-02-15T05:59:42;7.10;83.70
46159;DHT22;31888;44.512;26.104;2023-02-15T06:02:07;7.40;83.80
46159;DHT22;31888;44.512;26.104;2023-02-15T06:04:32;7.30;83.60
46159;DHT22;31888;44.512;26.104;2023-02-15T06:06:57;7.00;84.60
46159;DHT22;31888;44.512;26.104;2023-02-15T06:09:22;7.10;86.30
46159;DHT22;31888;44.512;26.104;2023-02-15T06:11:47;7.70;83.80
46159;DHT22;31888;44.512;26.104;2023-02-15T06:14:11;8.00;82.50
46159;DHT22;31888;44.512;26.104;2023-02-15T06:16:36;8.50;81.20
46159;DHT22;31888;44.512;26.104;2023-02-15T06:19:00;9.00;79.80
46159;DHT22;31888;44.512;26.104;2023-02-15T06:21:25;9.00;80.80
46159;DHT22;31888;44.512;26.104;2023-02-15T06:23:51;9.40;79.60
46159;DHT22;31888;44.512;26.104;2023-02-15T06:26:15;9.40;78.80
46159;DHT22;31888;44.512;26.104;2023-02-15T06:28:40;9.80;78.40
46159;DHT22;31888;44.512;26.104;2023-02-15T06:31:04;9.90;78.20
46159;DHT22;31888;44.512;26.104;2023-02-15T06:33:29;10.20;77.30
46159;DHT22;31888;44.512;26.104;2023-02-15T06:35:56;10.40;76.90
46159;DHT22;31888;44.512;26.104;2023-02-15T06:38:21;10.40;76.00
46159;DHT22;31888;44.512;26.104;2023-02-15T06:40:47;10.60;75.90
46159;DHT22;31888;44.512;26.104;2023-02-15T06:43:11;10.50;76.50
46159;DHT22;31888;44.512;26.104;2023-02-15T06:45:36;10.50;76.20
46159;DHT22;31888;44.512;26.104;2023-02-15T06:48:00;10.70;76.50
46159;DHT22;31888;44.512;26.104;2023-02-15T06:50:25;11.30;75.10
46159;DHT22;31888;44.512;26.104;2023-02-15T06:52:49;11.40;74.80
46159;DHT22;31888;44.512;26.104;2023-02-15T06:55:19;11.50;75.00
46159;DHT22;31888;44.512;26.104;2023-02-15T06:57:44;11.60;75.90
46159;DHT22;31888;44.512;26.104;2023-02-15T07:00:13;11.70;75.30
46159;DHT22;31888;44.512;26.104;2023-02-15T07:02:38;11.80;75.90
46159;DHT22;31888;44.512;26.104;2023-02-15T07:05:02;11.40;75.90
46159;DHT22;31888;44.512;26.104;2023-02-15T07:07:28;11.50;76.00
46159;DHT22;31888;44.512;26.104;2023-02-15T07:09:52;11.80;74.70
46159;DHT22;31888;44.512;26.104;2023-02-15T07:12:17;11.60;75.00
46159;DHT22;31888;44.512;26.104;2023-02-15T07:15:00;11.60;74.70
46159;DHT22;31888;44.512;26.104;2023-02-15T07:17:29;11.50;76.40
46159;DHT22;31888;44.512;26.104;2023-02-15T07:19:58;11.70;74.90
46159;DHT22;31888;44.512;26.104;2023-02-15T07:22:22;11.80;75.90
46159;DHT22;31888;44.512;26.104;2023-02-15T07:24:47;12.00;75.70
46159;DHT22;31888;44.512;26.104;2023-02-15T07:27:12;12.00;74.40
46159;DHT22;31888;44.512;26.104;2023-02-15T07:29:36;12.10;73.90
46159;DHT22;31888;44.512;26.104;2023-02-15T07:32:03;12.40;73.80
46159;DHT22;31888;44.512;26.104;2023-02-15T07:34:28;12.80;71.80
46159;DHT22;31888;44.512;26.104;2023-02-15T07:36:52;12.80;71.80
46159;DHT22;31888;44.512;26.104;2023-02-15T07:39:17;12.60;71.90
46159;DHT22;31888;44.512;26.104;2023-02-15T07:41:41;11.70;74.40
46159;DHT22;31888;44.512;26.104;2023-02-15T07:44:11;11.80;75.30
46159;DHT22;31888;44.512;26.104;2023-02-15T07:46:36;12.20;74.70
46159;DHT22;31888;44.512;26.104;2023-02-15T07:49:02;12.20;74.00
46159;DHT22;31888;44.512;26.104;2023-02-15T07:51:26;11.40;74.60
46159;DHT22;31888;44.512;26.104;2023-02-15T07:53:51;11.50;74.70
46159;DHT22;31888;44.512;26.104;2023-02-15T07:56:17;11.70;73.80
46159;DHT22;31888;44.512;26.104;2023-02-15T07:58:41;12.00;74.10
46159;DHT22;31888;44.512;26.104;2023-02-15T08:01:15;12.10;73.50
46159;DHT22;31888;44.512;26.104;2023-02-15T08:03:40;11.90;73.30
46159;DHT22;31888;44.512;26.104;2023-02-15T08:06:06;12.20;73.20
46159;DHT22;31888;44.512;26.104;2023-02-15T08:08:31;12.00;73.30
46159;DHT22;31888;44.512;26.104;2023-02-15T08:10:58;12.20;72.10
46159;DHT22;31888;44.512;26.104;2023-02-15T08:13:42;12.20;72.60
46159;DHT22;31888;44.512;26.104;2023-02-15T08:16:16;12.50;71.60
46159;DHT22;31888;44.512;26.104;2023-02-15T08:18:41;12.50;72.20
46159;DHT22;31888;44.512;26.104;2023-02-15T08:21:06;12.70;71.70
46159;DHT22;31888;44.512;26.104;2023-02-15T08:23:31;13.20;70.40
46159;DHT22;31888;44.512;26.104;2023-02-15T08:25:59;13.40;69.50
46159;DHT22;31888;44.512;26.104;2023-02-15T08:28:24;13.50;69.20
46159;DHT22;31888;44.512;26.104;2023-02-15T08:30:48;13.50;69.20
46159;DHT22;31888;44.512;26.104;2023-02-15T08:33:13;13.60;69.10
46159;DHT22;31888;44.512;26.104;2023-02-15T08:35:37;13.60;69.00
46159;DHT22;31888;44.512;26.104;2023-02-15T08:38:03;13.30;68.90
46159;DHT22;31888;44.512;26.104;2023-02-15T08:40:28;12.90;69.60
46159;DHT22;31888;44.512;26.104;2023-02-15T08:42:52;12.80;70.20
46159;DHT22;31888;44.512;26.104;2023-02-15T08:45:17;12.60;70.50
46159;DHT22;31888;44.512;26.104;2023-02-15T08:47:41;12.50;70.50
46159;DHT22;31888;44.512;26.104;2023-02-15T08:50:06;12.20;71.70
46159;DHT22;31888;44.512;26.104;2023-02-15T08:52:31;12.50;70.70
46159;DHT22;31888;44.512;26.104;2023-02-15T08:54:56;12.80;70.70
46159;DHT22;31888;44.512;26.104;2023-02-15T08:57:21;12.70;70.00
46159;DHT22;31888;44.512;26.104;2023-02-15T08:59:46;13.00;70.00
46159;DHT22;31888;44.512;26.104;2023-02-15T09:02:12;13.30;79.20
46159;DHT22;31888;44.512;26.104;2023-02-15T09:04:37;13.60;69.20
46159;DHT22;31888;44.512;26.104;2023-02-15T09:07:01;13.40;68.80
46159;DHT22;31888;44.512;26.104;2023-02-15T09:09:27;13.10;69.60
46159;DHT22;31888;44.512;26.104;2023-02-15T09:11:53;12.90;69.80
46159;DHT22;31888;44.512;26.104;2023-02-15T09:14:21;13.10;69.30
46159;DHT22;31888;44.512;26.104;2023-02-15T09:16:48;13.10;69.10
46159;DHT22;31888;44.512;26.104;2023-02-15T11:35:26;13.10;63.30
46159;DHT22;31888;44.512;26.104;2023-02-15T12:45:51;12.90;66.60
46159;DHT22;31888;44.512;26.104;2023-02-15T13:44:27;12.70;67.00
46159;DHT22;31888;44.512;26.104;2023-02-15T14:45:18;12.10;68.00
46159;DHT22;31888;44.512;26.104;2023-02-15T15:10:41;11.80;68.40
46159;DHT22;31888;44.512;26.104;2023-02-15T15:20:08;11.60;67.30
46159;DHT22;31888;44.512;26.104;2023-02-15T16:17:24;9.90;70.40
46159;DHT22;31888;44.512;26.104;2023-02-15T16:31:05;10.00;69.60
46159;DHT22;31888;44.512;26.104;2023-02-15T16:39:24;9.80;69.70
46159;DHT22;31888;44.512;26.104;2023-02-15T16:42:31;9.60;69.90
46159;DHT22;31888;44.512;26.104;2023-02-15T17:04:27;8.70;74.40
46159;DHT22;31888;44.512;26.104;2023-02-15T17:12:09;8.50;75.50
46159;DHT22;31888;44.512;26.104;2023-02-15T17:15:08;8.40;75.60
46159;DHT22;31888;44.512;26.104;2023-02-15T17:18:33;8.30;76.00
46159;DHT22;31888;44.512;26.104;2023-02-15T17:21:08;8.30;75.70
46159;DHT22;31888;44.512;26.104;2023-02-15T17:23:40;8.30;75.70
46159;DHT22;31888;44.512;26.104;2023-02-15T17:26:12;8.30;75.30
46159;DHT22;31888;44.512;26.104;2023-02-15T17:28:45;8.10;75.30
46159;DHT22;31888;44.512;26.104;2023-02-15T17:31:14;8.20;75.20
46159;DHT22;31888;44.512;26.104;2023-02-15T17:33:40;8.20;74.90
46159;DHT22;31888;44.512;26.104;2023-02-15T17:36:09;8.10;75.30
46159;DHT22;31888;44.512;26.104;2023-02-15T17:38:37;7.90;75.80
46159;DHT22;31888;44.512;26.104;2023-02-15T17:41:02;7.80;76.10
46159;DHT22;31888;44.512;26.104;2023-02-15T17:43:27;7.70;77.00
46159;DHT22;31888;44.512;26.104;2023-02-15T17:45:52;7.60;78.10
46159;DHT22;31888;44.512;26.104;2023-02-15T17:48:21;7.50;78.60
46159;DHT22;31888;44.512;26.104;2023-02-15T17:50:46;7.60;78.60
46159;DHT22;31888;44.512;26.104;2023-02-15T17:53:14;7.60;78.90
46159;DHT22;31888;44.512;26.104;2023-02-15T17:55:40;7.50;79.40
46159;DHT22;31888;44.512;26.104;2023-02-15T17:58:06;7.40;79.40
46159;DHT22;31888;44.512;26.104;2023-02-15T18:00:35;7.40;79.60
46159;DHT22;31888;44.512;26.104;2023-02-15T18:03:18;7.20;79.40
46159;DHT22;31888;44.512;26.104;2023-02-15T18:06:00;7.10;79.80
46159;DHT22;31888;44.512;26.104;2023-02-15T18:08:44;7.10;79.30
46159;DHT22;31888;44.512;26.104;2023-02-15T18:11:26;6.90;79.70
46159;DHT22;31888;44.512;26.104;2023-02-15T18:14:00;6.20;84.20
46159;DHT22;31888;44.512;26.104;2023-02-15T18:16:29;6.10;86.30
46159;DHT22;31888;44.512;26.104;2023-02-15T18:18:55;5.90;86.20
46159;DHT22;31888;44.512;26.104;2023-02-15T18:21:20;6.00;86.50
46159;DHT22;31888;44.512;26.104;2023-02-15T18:23:46;6.20;87.20
46159;DHT22;31888;44.512;26.104;2023-02-15T18:26:17;6.30;86.50
46159;DHT22;31888;44.512;26.104;2023-02-15T18:28:50;6.40;86.50
46159;DHT22;31888;44.512;26.104;2023-02-15T18:31:15;6.20;87.50
46159;DHT22;31888;44.512;26.104;2023-02-15T18:33:45;6.00;87.40
46159;DHT22;31888;44.512;26.104;2023-02-15T18:36:14;6.00;88.50
46159;DHT22;31888;44.512;26.104;2023-02-15T18:38:41;6.10;88.30
46159;DHT22;31888;44.512;26.104;2023-02-15T18:41:16;6.20;87.70
46159;DHT22;31888;44.512;26.104;2023-02-15T18:43:41;6.20;87.10
46159;DHT22;31888;44.512;26.104;2023-02-15T18:46:06;6.30;86.60
46159;DHT22;31888;44.512;26.104;2023-02-15T18:48:31;5.90;89.50
46159;DHT22;31888;44.512;26.104;2023-02-15T18:50:55;5.60;91.00
46159;DHT22;31888;44.512;26.104;2023-02-15T18:53:20;5.20;91.50
46159;DHT22;31888;44.512;26.104;2023-02-15T18:55:45;5.30;91.70
46159;DHT22;31888;44.512;26.104;2023-02-15T18:58:16;5.40;91.50
46159;DHT22;31888;44.512;26.104;2023-02-15T19:00:41;5.50;91.40
46159;DHT22;31888;44.512;26.104;2023-02-15T19:03:12;5.60;91.30
46159;DHT22;31888;44.512;26.104;2023-02-15T19:05:41;5.70;91.10
46159;DHT22;31888;44.512;26.104;2023-02-15T19:08:15;5.70;91.00
46159;DHT22;31888;44.512;26.104;2023-02-15T19:10:39;5.80;90.80
46159;DHT22;31888;44.512;26.104;2023-02-15T19:13:09;5.80;90.60
46159;DHT22;31888;44.512;26.104;2023-02-15T19:15:35;5.80;90.00
46159;DHT22;31888;44.512;26.104;2023-02-15T19:18:01;5.70;90.00
46159;DHT22;31888;44.512;26.104;2023-02-15T19:20:29;5.80;90.00
46159;DHT22;31888;44.512;26.104;2023-02-15T19:22:55;5.70;90.40
46159;DHT22;31888;44.512;26.104;2023-02-15T19:25:27;5.70;90.20
46159;DHT22;31888;44.512;26.104;2023-02-15T19:27:52;5.60;90.00
46159;DHT22;31888;44.512;26.104;2023-02-15T19:30:18;5.50;90.20
46159;DHT22;31888;44.512;26.104;2023-02-15T19:32:46;5.50;90.10
46159;DHT22;31888;44.512;26.104;2023-02-15T19:35:13;5.60;90.20
46159;DHT22;31888;44.512;26.104;2023-02-15T19:37:42;5.60;90.40
46159;DHT22;31888;44.512;26.104;2023-02-15T19:40:17;5.50;90.10
46159;DHT22;31888;44.512;26.104;2023-02-15T19:42:42;5.40;90.00
46159;DHT22;31888;44.512;26.104;2023-02-15T19:45:12;5.40;90.10
46159;DHT22;31888;44.512;26.104;2023-02-15T19:47:38;5.40;90.50
46159;DHT22;31888;44.512;26.104;2023-02-15T19:50:13;5.50;90.70
46159;DHT22;31888;44.512;26.104;2023-02-15T19:52:38;5.50;90.30
46159;DHT22;31888;44.512;26.104;2023-02-15T19:55:03;5.30;91.10
46159;DHT22;31888;44.512;26.104;2023-02-15T19:57:28;5.00;91.90
46159;DHT22;31888;44.512;26.104;2023-02-15T19:59:53;4.90;92.30
46159;DHT22;31888;44.512;26.104;2023-02-15T20:02:18;4.50;92.70
46159;DHT22;31888;44.512;26.104;2023-02-15T20:04:42;4.50;92.90
46159;DHT22;31888;44.512;26.104;2023-02-15T20:07:18;4.50;93.10
46159;DHT22;31888;44.512;26.104;2023-02-15T20:09:45;4.00;94.20
46159;DHT22;31888;44.512;26.104;2023-02-15T20:12:18;4.10;94.40
46159;DHT22;31888;44.512;26.104;2023-02-15T20:14:43;4.10;94.60
46159;DHT22;31888;44.512;26.104;2023-02-15T20:17:08;4.20;94.60
46159;DHT22;31888;44.512;26.104;2023-02-15T20:19:32;4.10;94.70
46159;DHT22;31888;44.512;26.104;2023-02-15T20:21:57;3.90;95.30
46159;DHT22;31888;44.512;26.104;2023-02-15T20:24:27;3.80;95.70
46159;DHT22;31888;44.512;26.104;2023-02-15T20:26:52;3.70;96.10
46159;DHT22;31888;44.512;26.104;2023-02-15T20:29:17;3.60;96.30
46159;DHT22;31888;44.512;26.104;2023-02-15T20:31:42;3.40;96.80
46159;DHT22;31888;44.512;26.104;2023-02-15T20:34:09;3.30;97.00
46159;DHT22;31888;44.512;26.104;2023-02-15T20:36:34;3.30;97.20
46159;DHT22;31888;44.512;26.104;2023-02-15T20:39:01;3.20;97.10
46159;DHT22;31888;44.512;26.104;2023-02-15T20:41:29;3.20;97.30
46159;DHT22;31888;44.512;26.104;2023-02-15T20:44:00;3.10;97.70
46159;DHT22;31888;44.512;26.104;2023-02-15T20:46:25;3.10;97.80
46159;DHT22;31888;44.512;26.104;2023-02-15T20:48:50;3.00;98.00
46159;DHT22;31888;44.512;26.104;2023-02-15T20:51:16;3.10;98.20
46159;DHT22;31888;44.512;26.104;2023-02-15T20:53:41;3.20;98.00
46159;DHT22;31888;44.512;26.104;2023-02-15T20:56:08;3.10;97.90
46159;DHT22;31888;44.512;26.104;2023-02-15T20:58:37;3.10;97.80
46159;DHT22;31888;44.512;26.104;2023-02-15T21:01:08;3.10;97.90
46159;DHT22;31888;44.512;26.104;2023-02-15T21:03:36;3.00;98.10
46159;DHT22;31888;44.512;26.104;2023-02-15T21:06:01;3.10;98.00
46159;DHT22;31888;44.512;26.104;2023-02-15T21:08:26;3.20;97.90
46159;DHT22;31888;44.512;26.104;2023-02-15T21:10:52;3.20;97.80
46159;DHT22;31888;44.512;26.104;2023-02-15T21:13:20;3.30;97.50
46159;DHT22;31888;44.512;26.104;2023-02-15T21:15:46;3.30;97.50
46159;DHT22;31888;44.512;26.104;2023-02-15T21:18:15;3.30;97.60
46159;DHT22;31888;44.512;26.104;2023-02-15T21:20:43;3.20;97.70
46159;DHT22;31888;44.512;26.104;2023-02-15T21:23:10;3.20;97.60
46159;DHT22;31888;44.512;26.104;2023-02-15T21:25:36;3.20;97.40
46159;DHT22;31888;44.512;26.104;2023-02-15T21:28:01;3.10;97.50
46159;DHT22;31888;44.512;26.104;2023-02-15T21:30:26;3.10;97.50
46159;DHT22;31888;44.512;26.104;2023-02-15T21:32:52;3.30;97.30
46159;DHT22;31888;44.512;26.104;2023-02-15T21:35:17;3.40;96.80
46159;DHT22;31888;44.512;26.104;2023-02-15T21:37:43;3.60;96.80
46159;DHT22;31888;44.512;26.104;2023-02-15T21:40:16;3.70;96.40
46159;DHT22;31888;44.512;26.104;2023-02-15T21:42:40;3.70;95.80
46159;DHT22;31888;44.512;26.104;2023-02-15T21:45:22;3.70;95.80
46159;DHT22;31888;44.512;26.104;2023-02-15T21:48:05;3.70;95.80
46159;DHT22;31888;44.512;26.104;2023-02-15T21:50:30;3.50;96.10
46159;DHT22;31888;44.512;26.104;2023-02-15T21:53:19;3.40;96.30
46159;DHT22;31888;44.512;26.104;2023-02-15T21:55:45;3.40;96.60
46159;DHT22;31888;44.512;26.104;2023-02-15T21:58:16;3.40;96.50
46159;DHT22;31888;44.512;26.104;2023-02-15T22:00:42;3.50;96.60
46159;DHT22;31888;44.512;26.104;2023-02-15T22:03:11;3.50;96.20
46159;DHT22;31888;44.512;26.104;2023-02-15T22:05:35;3.50;96.10
46159;DHT22;31888;44.512;26.104;2023-02-15T22:08:00;3.50;96.10
46159;DHT22;31888;44.512;26.104;2023-02-15T22:10:27;3.60;96.10
46159;DHT22;31888;44.512;26.104;2023-02-15T22:12:53;3.60;96.10
46159;DHT22;31888;44.512;26.104;2023-02-15T22:15:19;3.70;96.00
46159;DHT22;31888;44.512;26.104;2023-02-15T22:17:44;3.70;96.00
46159;DHT22;31888;44.512;26.104;2023-02-15T22:20:14;3.90;95.60
46159;DHT22;31888;44.512;26.104;2023-02-15T22:22:38;3.90;95.60
46159;DHT22;31888;44.512;26.104;2023-02-15T22:25:03;4.00;95.30
46159;DHT22;31888;44.512;26.104;2023-02-15T22:27:37;4.00;94.70
46159;DHT22;31888;44.512;26.104;2023-02-15T22:30:03;4.00;94.50
46159;DHT22;31888;44.512;26.104;2023-02-15T22:32:27;3.90;94.90
46159;DHT22;31888;44.512;26.104;2023-02-15T22:34:53;3.80;95.00
46159;DHT22;31888;44.512;26.104;2023-02-15T22:37:19;3.80;95.30
46159;DHT22;31888;44.512;26.104;2023-02-15T22:39:43;3.70;94.70
46159;DHT22;31888;44.512;26.104;2023-02-15T22:42:18;3.70;95.00
46159;DHT22;31888;44.512;26.104;2023-02-15T22:44:44;3.60;95.20
46159;DHT22;31888;44.512;26.104;2023-02-15T22:47:16;3.60;95.00
46159;DHT22;31888;44.512;26.104;2023-02-15T22:49:43;3.60;94.90
46159;DHT22;31888;44.512;26.104;2023-02-15T22:52:10;3.80;95.00
46159;DHT22;31888;44.512;26.104;2023-02-15T22:54:36;3.80;94.80
46159;DHT22;31888;44.512;26.104;2023-02-15T22:57:01;3.80;94.50
46159;DHT22;31888;44.512;26.104;2023-02-15T22:59:28;3.70;94.70
46159;DHT22;31888;44.512;26.104;2023-02-15T23:01:56;3.70;94.70